Time;durP1;ratioP1;P1;durP2;ratioP2;P2;SDS_P1;SDS_P2;PMS_P1;PMS_P2;Temp;Humidity;BMP_temperature;BMP_pressure;BME280_temperature;BME280_humidity;BME280_pressure;Samples;Min_cycle;Max_cycle;Signal;HPM_P1;HPM_P2
2022/09/12 00:01:37;;;;;;;0.30;0.30;;;15.80;99.90;;;;;;5054071;28;20025;-61
2022/09/12 00:04:03;;;;;;;1.30;0.40;;;15.70;99.90;;;;;;5053927;28;20060;-62
2022/09/12 00:06:34;;;;;;;0.50;0.30;;;15.60;99.90;;;;;;5053805;28;20048;-61
2022/09/12 00:09:07;;;;;;;0.73;0.28;;;15.50;99.90;;;;;;5053952;28;20033;-61
2022/09/12 00:11:38;;;;;;;0.65;0.20;;;15.50;99.90;;;;;;5053823;28;20033;-61
2022/09/12 00:14:06;;;;;;;0.73;0.40;;;15.60;99.90;;;;;;5053784;28;20045;-62
2022/09/12 00:16:34;;;;;;;1.75;0.43;;;15.60;99.90;;;;;;5053652;28;20044;-61
2022/09/12 00:19:00;;;;;;;1.60;0.30;;;15.60;99.90;;;;;;5053592;28;20056;-61
2022/09/12 00:21:27;;;;;;;1.20;0.50;;;15.70;99.90;;;;;;5053807;28;20044;-61
2022/09/12 00:23:53;;;;;;;0.85;0.30;;;15.60;99.90;;;;;;5053625;28;20059;-61
2022/09/12 00:26:20;;;;;;;1.02;0.35;;;15.50;99.90;;;;;;5053674;28;20047;-61
2022/09/12 00:28:47;;;;;;;0.75;0.55;;;15.50;99.90;;;;;;5053619;28;20083;-61
2022/09/12 00:31:16;;;;;;;0.40;0.30;;;15.50;99.90;;;;;;5053514;28;20048;-61
2022/09/12 00:33:42;;;;;;;0.98;0.50;;;15.40;99.90;;;;;;5053590;28;20099;-61
2022/09/12 00:36:17;;;;;;;0.43;0.30;;;15.20;99.90;;;;;;5053588;28;20052;-62
2022/09/12 00:38:44;;;;;;;0.47;0.40;;;15.10;99.90;;;;;;5053769;28;20124;-61
2022/09/12 00:41:24;;;;;;;0.50;0.32;;;15.00;99.90;;;;;;5053560;28;20053;-61
2022/09/12 00:43:53;;;;;;;1.45;0.55;;;15.00;99.90;;;;;;5053506;28;20075;-61
2022/09/12 00:46:27;;;;;;;0.40;0.30;;;15.10;99.90;;;;;;5053348;28;20049;-61
2022/09/12 00:49:00;;;;;;;1.58;0.40;;;15.10;99.90;;;;;;5053325;28;20033;-61
2022/09/12 00:51:30;;;;;;;1.25;0.30;;;15.30;99.90;;;;;;5053552;28;20041;-61
2022/09/12 00:53:59;;;;;;;0.65;0.30;;;15.40;99.90;;;;;;5053409;28;20115;-61
2022/09/12 00:56:26;;;;;;;0.40;0.32;;;15.40;99.90;;;;;;5053259;28;20041;-61
2022/09/12 00:59:00;;;;;;;0.50;0.30;;;15.30;99.90;;;;;;5053238;28;20179;-61
2022/09/12 01:01:26;;;;;;;0.98;0.60;;;15.40;99.90;;;;;;5055403;28;20044;-61
2022/09/12 01:03:53;;;;;;;0.38;0.32;;;15.50;99.90;;;;;;5057033;28;20041;-61
2022/09/12 01:06:34;;;;;;;0.73;0.40;;;15.50;99.90;;;;;;5057119;28;20068;-61
2022/09/12 01:09:03;;;;;;;0.77;0.32;;;15.60;99.90;;;;;;5057188;28;20123;-61
2022/09/12 01:11:35;;;;;;;1.98;0.30;;;15.70;99.90;;;;;;5057064;28;20566;-61
2022/09/12 01:14:00;;;;;;;0.45;0.40;;;15.50;99.90;;;;;;5056907;28;20068;-61
2022/09/12 01:16:26;;;;;;;0.63;0.40;;;15.40;99.90;;;;;;5056910;28;20049;-61
2022/09/12 01:19:18;;;;;;;1.13;0.60;;;15.40;99.90;;;;;;5056831;28;20068;-62
2022/09/12 01:22:25;;;;;;;1.15;0.50;;;15.30;99.90;;;;;;5056951;28;20389;-61
2022/09/12 01:25:15;;;;;;;1.75;0.45;;;15.40;99.90;;;;;;5056346;28;20086;-61
2022/09/12 01:27:54;;;;;;;2.97;0.30;;;15.40;99.90;;;;;;5056592;28;20466;-62
2022/09/12 01:30:32;;;;;;;0.50;0.50;;;15.30;99.90;;;;;;5056766;28;20072;-61
2022/09/12 01:33:30;;;;;;;0.40;0.32;;;15.50;99.90;;;;;;5056729;28;20041;-61
2022/09/12 01:36:16;;;;;;;4.32;0.50;;;15.50;99.90;;;;;;5056538;28;20044;-62
2022/09/12 01:38:45;;;;;;;3.03;0.40;;;15.50;99.90;;;;;;5056475;28;20045;-62
2022/09/12 01:41:20;;;;;;;2.85;0.77;;;15.30;99.90;;;;;;5056334;28;20068;-62
2022/09/12 01:44:22;;;;;;;2.03;0.45;;;15.20;99.90;;;;;;5056414;28;20029;-62
2022/09/12 01:47:10;;;;;;;0.40;0.32;;;15.20;99.90;;;;;;5056343;28;20048;-61
2022/09/12 01:49:54;;;;;;;0.50;0.43;;;15.00;99.90;;;;;;5056295;28;20036;-62
2022/09/12 01:52:49;;;;;;;1.55;0.40;;;14.90;99.90;;;;;;5056305;28;20032;-61
2022/09/12 01:55:21;;;;;;;1.08;0.40;;;15.00;99.90;;;;;;5056306;28;20045;-62
2022/09/12 01:58:25;;;;;;;1.30;0.50;;;15.00;99.90;;;;;;5055987;28;20037;-61
2022/09/12 02:01:01;;;;;;;0.52;0.50;;;15.10;99.90;;;;;;5039959;28;20053;-61
2022/09/12 02:03:33;;;;;;;0.57;0.40;;;15.10;99.90;;;;;;5055934;28;20049;-61
2022/09/12 02:06:06;;;;;;;0.73;0.43;;;15.10;99.90;;;;;;5055764;28;20045;-61
2022/09/12 02:08:39;;;;;;;0.38;0.38;;;15.00;99.90;;;;;;5059631;28;20048;-62
2022/09/12 02:11:08;;;;;;;0.30;0.30;;;14.80;99.90;;;;;;5076094;28;20388;-61
2022/09/12 02:14:02;;;;;;;3.58;0.60;;;14.60;99.90;;;;;;5075105;28;20044;-62
2022/09/12 02:17:01;;;;;;;0.45;0.43;;;14.60;99.90;;;;;;5075900;28;20039;-61
2022/09/12 02:19:36;;;;;;;0.32;0.32;;;14.70;99.90;;;;;;5075500;28;20052;-61
2022/09/12 02:22:03;;;;;;;1.15;0.30;;;14.70;99.90;;;;;;5075572;28;20085;-62
2022/09/12 02:24:44;;;;;;;1.25;0.40;;;14.60;99.90;;;;;;5066325;28;20056;-62
2022/09/12 02:27:15;;;;;;;;;;;14.70;99.90;;;;;;5055866;28;20480;-61
2022/09/12 02:29:43;;;;;;;1.27;0.40;;;14.80;99.90;;;;;;5054919;28;19915;-61
2022/09/12 02:32:21;;;;;;;0.50;0.40;;;14.70;99.90;;;;;;5055379;28;20081;-61
2022/09/12 02:35:02;;;;;;;1.38;0.60;;;14.60;99.90;;;;;;5055290;28;20041;-61
2022/09/12 02:37:52;;;;;;;1.88;0.63;;;14.50;99.90;;;;;;5055152;28;20060;-61
2022/09/12 02:40:18;;;;;;;4.03;0.60;;;14.50;99.90;;;;;;5055395;28;20103;-61
2022/09/12 02:42:44;;;;;;;1.80;0.40;;;14.30;99.90;;;;;;5055542;28;20121;-62
2022/09/12 02:45:11;;;;;;;0.93;0.50;;;14.30;99.90;;;;;;5055430;28;20086;-61
2022/09/12 02:47:57;;;;;;;0.75;0.40;;;14.30;99.90;;;;;;5055319;28;20412;-61
2022/09/12 02:50:23;;;;;;;0.85;0.57;;;14.40;99.90;;;;;;5055077;28;20045;-62
2022/09/12 02:52:52;;;;;;;2.03;0.47;;;14.50;99.90;;;;;;5054951;28;20048;-61
2022/09/12 02:55:18;;;;;;;1.58;0.60;;;14.60;99.90;;;;;;5055341;28;20403;-61
2022/09/12 02:57:44;;;;;;;0.60;0.40;;;14.60;99.90;;;;;;5055221;28;20041;-62
2022/09/12 03:00:11;;;;;;;0.85;0.55;;;14.60;99.90;;;;;;5054791;28;20095;-62
2022/09/12 03:03:11;;;;;;;1.15;0.60;;;14.60;99.90;;;;;;5054935;28;20048;-62
2022/09/12 03:05:54;;;;;;;1.88;0.55;;;14.50;99.90;;;;;;5041339;28;20029;-62
2022/09/12 03:09:00;;;;;;;0.70;0.60;;;14.40;99.90;;;;;;5054915;28;20118;-62
2022/09/12 03:11:42;;;;;;;0.88;0.50;;;14.50;99.90;;;;;;5054741;28;20033;-61
2022/09/12 03:14:24;;;;;;;0.32;0.32;;;14.50;99.90;;;;;;5054677;28;20037;-62
2022/09/12 03:17:05;;;;;;;1.35;0.50;;;14.60;99.90;;;;;;5054307;28;20040;-61
2022/09/12 03:19:50;;;;;;;1.95;0.70;;;14.60;99.90;;;;;;5054579;28;20139;-61
2022/09/12 03:22:26;;;;;;;2.97;0.70;;;14.50;99.90;;;;;;5054632;28;20481;-66
2022/09/12 03:25:15;;;;;;;2.05;0.70;;;14.40;99.90;;;;;;5054323;28;20114;-63
2022/09/12 03:28:06;;;;;;;3.28;0.40;;;14.40;99.90;;;;;;5054705;28;20480;-61
2022/09/12 03:30:47;;;;;;;0.40;0.35;;;14.40;99.90;;;;;;5054456;28;20049;-61
2022/09/12 03:33:15;;;;;;;0.68;0.45;;;14.40;99.90;;;;;;5054483;28;20434;-61
2022/09/12 03:35:42;;;;;;;1.85;0.47;;;14.30;99.90;;;;;;5054219;28;20052;-65
2022/09/12 03:38:08;;;;;;;0.75;0.50;;;14.20;99.90;;;;;;5054589;28;20033;-62
2022/09/12 03:40:35;;;;;;;0.52;0.50;;;14.10;99.90;;;;;;5053812;28;20385;-62
2022/09/12 03:43:02;;;;;;;1.85;0.40;;;14.10;99.90;;;;;;5054065;28;20040;-62
2022/09/12 03:45:27;;;;;;;0.95;0.40;;;13.90;99.90;;;;;;5054095;28;20041;-61
2022/09/12 03:47:53;;;;;;;2.08;0.60;;;13.90;99.90;;;;;;5052864;28;20045;-61
2022/09/12 03:50:19;;;;;;;2.63;0.40;;;13.90;99.90;;;;;;5054043;28;20048;-61
2022/09/12 03:52:45;;;;;;;0.57;0.40;;;14.00;99.90;;;;;;5053995;28;20045;-62
2022/09/12 03:55:11;;;;;;;0.88;0.50;;;14.00;99.90;;;;;;5054036;28;20147;-64
2022/09/12 03:57:37;;;;;;;1.02;0.60;;;14.00;99.90;;;;;;5054018;28;20494;-61
2022/09/12 04:00:05;;;;;;;0.68;0.40;;;14.10;99.90;;;;;;5053972;28;20080;-62
2022/09/12 04:02:31;;;;;;;0.80;0.50;;;14.10;99.90;;;;;;5054121;28;20120;-62
2022/09/12 04:04:56;;;;;;;1.83;0.70;;;14.10;99.90;;;;;;5053997;28;20445;-61
2022/09/12 04:07:22;;;;;;;0.40;0.40;;;14.30;99.90;;;;;;5053934;28;20044;-63
2022/09/12 04:09:49;;;;;;;1.20;0.63;;;14.30;99.90;;;;;;5053990;28;20052;-61
2022/09/12 04:12:15;;;;;;;0.70;0.57;;;14.30;99.90;;;;;;5053851;28;20052;-61
2022/09/12 04:14:40;;;;;;;1.83;0.70;;;14.10;99.90;;;;;;5053739;28;20045;-62
2022/09/12 04:17:07;;;;;;;0.50;0.40;;;13.90;99.90;;;;;;5053580;28;20493;-62
2022/09/12 04:19:33;;;;;;;1.55;0.50;;;13.90;99.90;;;;;;5053406;28;20115;-61
2022/09/12 04:21:59;;;;;;;0.50;0.40;;;14.00;99.90;;;;;;5053316;28;20052;-63
2022/09/12 04:24:25;;;;;;;0.82;0.50;;;14.20;99.90;;;;;;5053592;28;20041;-62
2022/09/12 04:26:51;;;;;;;1.15;0.40;;;14.30;99.90;;;;;;5053512;28;20041;-65
2022/09/12 04:29:16;;;;;;;0.63;0.30;;;14.30;99.90;;;;;;5053826;28;20037;-62
2022/09/12 04:31:42;;;;;;;0.75;0.47;;;14.40;99.90;;;;;;5052836;28;20048;-62
2022/09/12 04:34:09;;;;;;;1.27;0.50;;;14.40;99.90;;;;;;5053664;28;20064;-62
2022/09/12 04:36:36;;;;;;;0.90;0.40;;;14.40;99.90;;;;;;5056464;28;20155;-62
2022/09/12 04:39:03;;;;;;;1.17;0.50;;;14.50;99.90;;;;;;5057734;28;20037;-61
2022/09/12 04:41:32;;;;;;;3.05;0.50;;;14.30;99.90;;;;;;5056437;28;20423;-61
2022/09/12 04:44:06;;;;;;;0.30;0.30;;;14.30;99.90;;;;;;5057759;28;20071;-61
2022/09/12 04:46:40;;;;;;;1.27;0.45;;;13.90;99.90;;;;;;5057125;28;20563;-61
2022/09/12 04:49:06;;;;;;;1.30;0.50;;;13.60;99.90;;;;;;5057694;28;20449;-61
2022/09/12 04:51:34;;;;;;;0.82;0.50;;;13.60;99.90;;;;;;5057517;28;20047;-62
2022/09/12 04:54:06;;;;;;;1.95;0.60;;;13.40;99.90;;;;;;5056582;28;20045;-60
2022/09/12 04:56:35;;;;;;;0.63;0.40;;;13.40;99.90;;;;;;5055229;28;20045;-61
2022/09/12 04:59:01;;;;;;;0.40;0.40;;;13.50;99.90;;;;;;5056639;28;20037;-62
2022/09/12 05:01:29;;;;;;;0.85;0.40;;;13.60;99.90;;;;;;5057012;28;20111;-62
2022/09/12 05:03:56;;;;;;;0.50;0.50;;;13.50;99.90;;;;;;5056051;28;20048;-63
2022/09/12 05:06:24;;;;;;;1.23;0.60;;;13.70;99.90;;;;;;5056433;28;20037;-61
2022/09/12 05:08:51;;;;;;;1.13;0.70;;;13.90;99.90;;;;;;5056317;28;20090;-62
2022/09/12 05:11:23;;;;;;;2.25;0.55;;;14.00;99.90;;;;;;5057099;28;20052;-64
2022/09/12 05:13:49;;;;;;;1.23;0.50;;;14.00;99.90;;;;;;5057202;28;20040;-61
2022/09/12 05:16:16;;;;;;;2.28;0.50;;;14.00;99.90;;;;;;5056922;28;20049;-61
2022/09/12 05:18:43;;;;;;;1.73;0.60;;;14.00;99.90;;;;;;5055593;28;20045;-61
2022/09/12 05:21:12;;;;;;;1.15;0.55;;;13.90;99.90;;;;;;5056446;28;20056;-65
2022/09/12 05:23:38;;;;;;;3.83;0.50;;;14.00;99.90;;;;;;5056421;28;20040;-61
2022/09/12 05:26:05;;;;;;;1.70;0.40;;;14.10;99.90;;;;;;5056336;28;20044;-62
2022/09/12 05:28:34;;;;;;;3.55;0.40;;;14.20;99.90;;;;;;5056773;28;20121;-64
2022/09/12 05:31:05;;;;;;;1.73;0.50;;;14.30;99.90;;;;;;5056638;28;20056;-62
2022/09/12 05:33:34;;;;;;;0.65;0.63;;;14.30;99.90;;;;;;5055594;28;20049;-65
2022/09/12 05:36:02;;;;;;;1.08;0.50;;;14.30;99.90;;;;;;5056258;28;20091;-60
2022/09/12 05:38:28;;;;;;;1.10;0.40;;;14.30;99.90;;;;;;5055293;28;20570;-60
2022/09/12 05:41:10;;;;;;;1.00;0.68;;;14.40;99.90;;;;;;5056506;28;20059;-64
2022/09/12 05:43:37;;;;;;;0.57;0.50;;;14.40;99.90;;;;;;5050488;28;20073;-63
2022/09/12 05:46:07;;;;;;;1.02;0.60;;;14.30;99.90;;;;;;5036701;28;20065;-61
2022/09/12 05:48:36;;;;;;;0.73;0.63;;;14.00;99.90;;;;;;5040890;28;20072;-63
2022/09/12 05:51:09;;;;;;;0.93;0.57;;;14.00;99.90;;;;;;5056319;28;20037;-64
2022/09/12 05:53:37;;;;;;;0.95;0.55;;;14.10;99.90;;;;;;5056373;28;20124;-60
2022/09/12 05:56:09;;;;;;;0.88;0.60;;;14.20;99.90;;;;;;5054515;28;20520;-60
2022/09/12 05:58:37;;;;;;;0.55;0.50;;;14.30;99.90;;;;;;5056341;28;20041;-61
2022/09/12 06:01:09;;;;;;;5.82;0.55;;;14.30;99.90;;;;;;5056222;28;20053;-61
2022/09/12 06:03:39;;;;;;;1.58;0.57;;;14.30;99.90;;;;;;5056142;28;20044;-60
2022/09/12 06:06:05;;;;;;;4.28;0.90;;;14.50;99.90;;;;;;5055485;28;20061;-61
2022/09/12 06:08:32;;;;;;;0.98;0.50;;;14.50;99.90;;;;;;5056110;28;20037;-61
2022/09/12 06:11:05;;;;;;;1.55;0.68;;;14.40;99.90;;;;;;5045899;28;20041;-61
2022/09/12 06:13:33;;;;;;;1.23;0.47;;;14.50;99.90;;;;;;5051186;28;20404;-66
2022/09/12 06:16:14;;;;;;;1.00;0.50;;;14.80;99.90;;;;;;5055379;28;20566;-61
2022/09/12 06:18:41;;;;;;;0.85;0.63;;;15.00;99.90;;;;;;5038942;28;20048;-61
2022/09/12 06:21:09;;;;;;;1.30;0.60;;;15.40;99.90;;;;;;5033990;28;20496;-62
2022/09/12 06:23:35;;;;;;;3.00;0.60;;;16.00;99.90;;;;;;5034432;28;20434;-62
2022/09/12 06:26:03;;;;;;;1.58;0.50;;;16.30;99.90;;;;;;5034433;28;20447;-63
2022/09/12 06:28:34;;;;;;;2.25;0.60;;;16.40;99.90;;;;;;5033496;28;20412;-61
2022/09/12 06:31:05;;;;;;;0.95;0.60;;;16.60;99.90;;;;;;5034149;28;20083;-61
2022/09/12 06:33:33;;;;;;;1.98;0.60;;;16.60;99.90;;;;;;5035741;28;20038;-62
2022/09/12 06:36:05;;;;;;;3.75;0.50;;;16.80;99.90;;;;;;5050932;28;20405;-64
2022/09/12 06:38:31;;;;;;;1.90;0.73;;;16.80;99.90;;;;;;5035321;28;20053;-63
2022/09/12 06:40:59;;;;;;;0.63;0.57;;;16.90;99.90;;;;;;5034597;28;20049;-62
2022/09/12 06:43:25;;;;;;;2.92;0.70;;;17.20;99.90;;;;;;5034671;28;20045;-62
2022/09/12 06:45:51;;;;;;;1.15;0.68;;;;;;;;;;5034371;28;20045;-62
2022/09/12 06:48:17;;;;;;;1.45;0.50;;;18.10;99.90;;;;;;5034125;28;20103;-62
2022/09/12 06:51:01;;;;;;;0.70;0.50;;;18.50;99.90;;;;;;5034668;28;20047;-62
2022/09/12 06:53:28;;;;;;;2.92;0.45;;;18.90;99.90;;;;;;5034527;28;20057;-63
2022/09/12 06:55:59;;;;;;;0.43;0.40;;;18.80;99.90;;;;;;5034411;28;20044;-63
2022/09/12 06:58:27;;;;;;;0.75;0.50;;;18.90;99.90;;;;;;5033806;28;20072;-63
2022/09/12 07:01:01;;;;;;;0.45;0.40;;;19.20;99.90;;;;;;5034330;28;20081;-62
2022/09/12 07:03:28;;;;;;;1.00;0.47;;;19.00;99.90;;;;;;5034138;28;20397;-62
2022/09/12 07:06:00;;;;;;;1.48;0.50;;;19.60;99.90;;;;;;5032998;28;20073;-66
2022/09/12 07:08:30;;;;;;;1.75;0.52;;;19.70;99.90;;;;;;5033030;28;20037;-63
2022/09/12 07:10:58;;;;;;;0.90;0.53;;;19.80;99.90;;;;;;5033174;28;20512;-63
2022/09/12 07:13:24;;;;;;;2.50;1.10;;;20.10;99.90;;;;;;5033469;28;20370;-63
2022/09/12 07:15:50;;;;;;;1.40;0.60;;;20.10;99.90;;;;;;5033455;28;20044;-66
2022/09/12 07:18:16;;;;;;;0.77;0.52;;;20.10;99.90;;;;;;5033564;28;20080;-62
2022/09/12 07:20:42;;;;;;;2.17;1.05;;;20.30;99.90;;;;;;5034741;28;20646;-63
2022/09/12 07:23:08;;;;;;;0.77;0.60;;;20.80;99.90;;;;;;5034909;28;20120;-62
2022/09/12 07:25:34;;;;;;;1.42;0.50;;;;;;;;;;5034971;28;20077;-62
2022/09/12 07:28:01;;;;;;;0.63;0.50;;;20.80;99.90;;;;;;5034791;28;20037;-62
2022/09/12 07:30:27;;;;;;;1.02;0.68;;;20.90;99.90;;;;;;5034714;28;20397;-62
2022/09/12 07:32:53;;;;;;;0.77;0.57;;;20.70;99.90;;;;;;5034733;28;20033;-65
2022/09/12 07:35:20;;;;;;;0.40;0.40;;;20.60;99.90;;;;;;5034515;28;20047;-63
2022/09/12 07:37:46;;;;;;;1.98;0.60;;;20.70;99.90;;;;;;5034946;28;20041;-62
2022/09/12 07:40:12;;;;;;;3.22;0.65;;;20.90;99.90;;;;;;5042337;28;20056;-62
2022/09/12 07:42:38;;;;;;;0.80;0.50;;;20.80;99.90;;;;;;5054413;28;20037;-62
2022/09/12 07:45:04;;;;;;;0.65;0.60;;;21.10;99.90;;;;;;5054464;28;20431;-62
2022/09/12 07:47:29;;;;;;;1.33;0.63;;;21.10;99.90;;;;;;5054153;28;20048;-62
2022/09/12 07:49:55;;;;;;;3.33;0.70;;;21.20;99.90;;;;;;5054110;28;20047;-69
2022/09/12 07:52:21;;;;;;;0.70;0.50;;;21.10;99.90;;;;;;5054061;28;20647;-67
2022/09/12 07:54:47;;;;;;;1.20;0.70;;;21.20;99.90;;;;;;5054144;28;20065;-66
2022/09/12 07:57:14;;;;;;;0.90;0.50;;;21.20;99.90;;;;;;5054133;28;20041;-66
2022/09/12 07:59:41;;;;;;;1.02;0.38;;;21.40;99.90;;;;;;5054439;28;20040;-66
2022/09/12 08:02:12;;;;;;;1.38;0.60;;;21.40;99.90;;;;;;5053944;28;20044;-65
2022/09/12 08:04:39;;;;;;;2.03;0.70;;;21.70;99.90;;;;;;5054292;28;20063;-65
2022/09/12 08:07:05;;;;;;;4.47;0.75;;;21.90;99.90;;;;;;5053728;28;20040;-64
2022/09/12 08:09:31;;;;;;;1.02;0.60;;;21.90;99.90;;;;;;5053420;28;20492;-65
2022/09/12 08:11:57;;;;;;;1.17;0.80;;;22.10;99.90;;;;;;5053187;28;20056;-65
2022/09/12 08:14:23;;;;;;;2.22;0.93;;;22.00;99.90;;;;;;5054121;28;20037;-64
2022/09/12 08:16:50;;;;;;;2.78;0.60;;;21.80;99.90;;;;;;5053843;28;20037;-64
2022/09/12 08:19:16;;;;;;;1.58;0.70;;;21.90;99.90;;;;;;5053789;28;20047;-65
2022/09/12 08:21:42;;;;;;;0.70;0.60;;;22.00;99.90;;;;;;5053940;28;20048;-64
2022/09/12 08:24:11;;;;;;;1.25;0.60;;;22.30;99.90;;;;;;5053785;28;20037;-65
2022/09/12 08:26:37;;;;;;;3.72;1.00;;;22.10;99.90;;;;;;5053662;28;20041;-64
2022/09/12 08:29:03;;;;;;;0.88;0.80;;;21.70;99.90;;;;;;5053782;28;20055;-64
2022/09/12 08:31:35;;;;;;;1.40;0.50;;;21.70;99.90;;;;;;5053679;28;20037;-66
2022/09/12 08:34:02;;;;;;;4.22;0.95;;;21.50;99.90;;;;;;5053669;28;20049;-68
2022/09/12 08:36:28;;;;;;;1.98;1.00;;;21.50;99.90;;;;;;5053585;28;20044;-66
2022/09/12 08:38:59;;;;;;;1.48;0.88;;;21.40;99.90;;;;;;5053818;28;20036;-68
2022/09/12 08:41:46;;;;;;;1.42;0.60;;;21.40;99.90;;;;;;5053679;28;20492;-65
2022/09/12 08:44:18;;;;;;;1.55;0.47;;;21.30;99.90;;;;;;5053775;28;20045;-65
2022/09/12 08:47:03;;;;;;;0.88;0.70;;;;;;;;;;5053657;28;20420;-67
2022/09/12 08:49:33;;;;;;;3.63;1.38;;;21.20;99.90;;;;;;5053551;28;20052;-68
2022/09/12 08:52:05;;;;;;;2.55;1.15;;;21.20;99.90;;;;;;5053799;28;20051;-64
2022/09/12 08:54:32;;;;;;;1.63;0.90;;;21.70;99.90;;;;;;5051611;28;20295;-65
2022/09/12 08:57:03;;;;;;;0.90;0.60;;;21.80;99.90;;;;;;5042334;28;20595;-65
2022/09/12 08:59:41;;;;;;;1.73;0.80;;;22.20;99.90;;;;;;5033595;28;20041;-65
2022/09/12 09:02:38;;;;;;;1.58;0.70;;;22.00;99.90;;;;;;5033775;28;20072;-64
2022/09/12 09:05:11;;;;;;;0.85;0.65;;;22.20;99.90;;;;;;5029040;28;20041;-68
2022/09/12 09:08:04;;;;;;;1.60;0.60;;;22.40;99.90;;;;;;5033452;28;20132;-66
2022/09/12 09:10:48;;;;;;;2.35;1.10;;;22.50;99.90;;;;;;5033605;28;20044;-65
2022/09/12 09:14:46;;;;;;;2.45;0.60;;;22.50;99.90;;;;;;5033324;28;20037;-65
2022/09/12 09:16:02;;;;;;;3.75;0.60;;;;;;;;;;5033460;28;20041;-65
2022/09/12 09:18:32;;;;;;;1.67;0.70;;;23.20;99.90;;;;;;5033602;28;20044;-65
2022/09/12 09:21:02;;;;;;;0.63;0.60;;;23.10;99.90;;;;;;5033581;28;20056;-64
2022/09/12 09:23:30;;;;;;;;;;;22.50;99.90;;;;;;5037530;28;20115;-64
2022/09/12 09:26:00;;;;;;;2.47;0.80;;;22.20;99.90;;;;;;5037155;28;19916;-65
2022/09/12 09:28:56;;;;;;;1.85;0.68;;;22.50;99.90;;;;;;5037172;28;20049;-66
2022/09/12 09:31:24;;;;;;;4.78;1.10;;;23.20;99.90;;;;;;5036768;28;20072;-67
2022/09/12 09:33:55;;;;;;;4.25;0.80;;;23.30;99.90;;;;;;5036749;28;20567;-67
2022/09/12 09:36:27;;;;;;;0.98;0.60;;;23.80;99.90;;;;;;5035657;28;20079;-65
2022/09/12 09:39:08;;;;;;;5.57;0.75;;;23.70;99.90;;;;;;5036925;28;20104;-64
2022/09/12 09:41:59;;;;;;;4.70;0.70;;;23.50;99.90;;;;;;5036943;28;20049;-65
2022/09/12 09:44:28;;;;;;;0.95;0.68;;;23.50;99.90;;;;;;5036775;28;20526;-65
2022/09/12 09:46:59;;;;;;;4.35;1.08;;;23.50;99.60;;;;;;5043425;28;20041;-65
2022/09/12 09:49:29;;;;;;;2.28;0.70;;;23.40;99.90;;;;;;5056559;28;20392;-68
2022/09/12 09:51:59;;;;;;;0.80;0.80;;;23.90;99.90;;;;;;5056660;28;20037;-67
2022/09/12 09:54:39;;;;;;;5.65;0.80;;;24.00;99.90;;;;;;5056617;28;20041;-66
2022/09/12 09:57:33;;;;;;;2.58;0.88;;;24.10;99.40;;;;;;5056181;28;20381;-67
2022/09/12 10:00:25;;;;;;;3.45;0.60;;;24.10;99.90;;;;;;5054686;28;20044;-65
2022/09/12 10:03:25;;;;;;;3.60;0.80;;;24.20;99.90;;;;;;5054902;28;20676;-65
2022/09/12 10:05:58;;;;;;;0.98;0.60;;;24.30;99.90;;;;;;5054027;28;20124;-68
2022/09/12 10:08:34;;;;;;;2.38;0.70;;;23.90;98.50;;;;;;5055939;28;20041;-65
2022/09/12 10:11:21;;;;;;;1.23;0.65;;;24.00;99.30;;;;;;5056097;28;20089;-65
2022/09/12 10:13:53;;;;;;;1.67;0.50;;;24.00;99.10;;;;;;5056076;28;20095;-68
2022/09/12 10:16:23;;;;;;;1.98;0.77;;;24.10;99.10;;;;;;5056064;28;20041;-65
2022/09/12 10:18:51;;;;;;;;;;;24.20;98.40;;;;;;5056469;28;20076;-68
2022/09/12 10:21:33;;;;;;;0.80;0.60;;;24.20;98.60;;;;;;5055805;28;19917;-68
2022/09/12 10:24:05;;;;;;;1.77;0.85;;;24.30;98.50;;;;;;5055792;28;20397;-69
2022/09/12 10:26:34;;;;;;;1.48;0.63;;;24.30;99.50;;;;;;5055766;28;20048;-65
2022/09/12 10:29:10;;;;;;;0.70;0.60;;;24.60;98.00;;;;;;5051030;28;20048;-68
2022/09/12 10:31:46;;;;;;;1.33;0.60;;;24.50;97.20;;;;;;5040630;28;20036;-64
2022/09/12 10:34:38;;;;;;;0.50;0.50;;;24.40;97.40;;;;;;5043289;28;20408;-64
2022/09/12 10:37:07;;;;;;;1.58;0.50;;;24.60;96.00;;;;;;5035584;28;20505;-69
2022/09/12 10:39:36;;;;;;;3.05;0.63;;;24.50;98.10;;;;;;5035528;28;20497;-68
2022/09/12 10:42:03;;;;;;;1.38;0.73;;;25.50;99.30;;;;;;5035745;28;20045;-69
2022/09/12 10:44:31;;;;;;;4.32;0.73;;;25.70;96.70;;;;;;5034585;28;20140;-66
2022/09/12 10:46:58;;;;;;;1.05;0.70;;;;;;;;;;5031866;28;20518;-67
2022/09/12 10:49:26;;;;;;;3.17;0.68;;;25.40;95.90;;;;;;5033348;28;20035;-68
2022/09/12 10:51:53;;;;;;;2.42;1.33;;;25.00;95.50;;;;;;5033817;28;20084;-66
2022/09/12 10:54:23;;;;;;;5.40;0.60;;;25.00;96.60;;;;;;5034919;28;20425;-68
2022/09/12 10:57:05;;;;;;;0.50;0.50;;;25.10;96.40;;;;;;5032373;28;20045;-69
2022/09/12 10:59:31;;;;;;;1.48;0.65;;;25.50;96.90;;;;;;5032747;28;20040;-65
2022/09/12 11:02:23;;;;;;;1.23;0.52;;;25.50;95.40;;;;;;5033337;28;20481;-66
2022/09/12 11:05:20;;;;;;;1.30;0.60;;;25.40;95.80;;;;;;5034932;28;20041;-66
2022/09/12 11:07:54;;;;;;;1.45;0.75;;;25.50;95.10;;;;;;5034451;28;20513;-66
2022/09/12 11:11:01;;;;;;;1.38;0.68;;;25.30;94.50;;;;;;5032640;28;20037;-65
2022/09/12 11:13:50;;;;;;;2.28;0.60;;;25.60;95.50;;;;;;5032504;28;20095;-65
2022/09/12 11:16:32;;;;;;;5.38;0.52;;;26.10;99.90;;;;;;5032963;28;20432;-65
2022/09/12 11:19:28;;;;;;;1.52;0.65;;;26.10;95.70;;;;;;5034662;28;20041;-65
2022/09/12 11:22:17;;;;;;;1.10;0.70;;;25.50;95.10;;;;;;5034468;28;20421;-65
2022/09/12 11:24:52;;;;;;;1.27;0.70;;;25.40;94.10;;;;;;5034381;28;20087;-65
2022/09/12 11:27:53;;;;;;;2.28;0.75;;;25.20;94.70;;;;;;5033114;28;20532;-65
2022/09/12 11:30:19;;;;;;;1.13;0.55;;;25.40;95.20;;;;;;5032393;28;20154;-68
2022/09/12 11:33:04;;;;;;;2.45;0.52;;;25.30;94.10;;;;;;5032721;28;20581;-67
2022/09/12 11:35:34;;;;;;;2.20;0.50;;;25.60;95.20;;;;;;5032407;28;20099;-65
2022/09/12 11:38:18;;;;;;;1.23;1.13;;;25.50;94.00;;;;;;5033321;28;20485;-69
2022/09/12 11:40:59;;;;;;;1.65;0.60;;;25.20;94.00;;;;;;5033991;28;20382;-64
2022/09/12 11:43:37;;;;;;;1.58;0.63;;;25.50;94.30;;;;;;5041824;28;20048;-70
2022/09/12 11:46:28;;;;;;;0.85;0.50;;;25.50;94.70;;;;;;5051646;28;20127;-69
2022/09/12 11:49:05;;;;;;;2.17;0.63;;;25.90;94.80;;;;;;5052079;28;20033;-65
2022/09/12 11:51:40;;;;;;;2.25;0.57;;;26.00;93.70;;;;;;5052031;28;20040;-69
2022/09/12 11:54:17;;;;;;;1.48;0.60;;;25.80;93.50;;;;;;5051893;28;20076;-66
2022/09/12 11:56:46;;;;;;;1.58;0.60;;;25.70;93.60;;;;;;5051959;28;20045;-64
2022/09/12 11:59:53;;;;;;;0.40;0.30;;;25.60;93.30;;;;;;5052240;28;20045;-66
2022/09/12 12:02:47;;;;;;;1.10;0.60;;;25.50;93.30;;;;;;5019021;28;20574;-65
2022/09/12 12:05:24;;;;;;;0.70;0.57;;;25.80;93.60;;;;;;5054089;28;20052;-65
2022/09/12 12:08:00;;;;;;;0.95;0.50;;;;;;;;;;5052762;28;20040;-65
2022/09/12 12:10:33;;;;;;;0.70;0.60;;;26.40;93.20;;;;;;5054080;28;20413;-67
2022/09/12 12:13:02;;;;;;;2.65;0.70;;;26.10;92.50;;;;;;5053960;28;20037;-66
2022/09/12 12:15:29;;;;;;;0.88;0.63;;;25.90;93.10;;;;;;5053901;28;20060;-65
2022/09/12 12:18:16;;;;;;;1.33;0.43;;;26.10;93.70;;;;;;5053998;28;20383;-68
2022/09/12 12:20:42;;;;;;;1.08;0.50;;;26.50;93.30;;;;;;5053554;28;20045;-66
2022/09/12 12:23:22;;;;;;;2.45;0.73;;;26.30;92.30;;;;;;5053526;28;20048;-68
2022/09/12 12:26:00;;;;;;;1.17;0.50;;;26.60;92.90;;;;;;5053627;28;20481;-65
2022/09/12 12:28:41;;;;;;;2.05;0.60;;;26.50;93.10;;;;;;5053516;28;20029;-65
2022/09/12 12:31:09;;;;;;;0.80;0.50;;;26.30;92.10;;;;;;5053727;28;20044;-66
2022/09/12 12:33:38;;;;;;;1.33;0.75;;;26.30;92.60;;;;;;5053794;28;20051;-69
2022/09/12 12:36:08;;;;;;;1.85;0.52;;;26.30;91.90;;;;;;5053670;28;20508;-65
2022/09/12 12:38:43;;;;;;;;;;;26.30;91.60;;;;;;5054081;28;20107;-66
2022/09/12 12:41:17;;;;;;;0.50;0.50;;;26.60;92.20;;;;;;5053728;28;19916;-65
2022/09/12 12:43:51;;;;;;;0.68;0.50;;;26.70;92.00;;;;;;5053683;28;20029;-65
2022/09/12 12:46:29;;;;;;;1.80;0.55;;;27.00;91.60;;;;;;5053816;28;20045;-65
2022/09/12 12:49:27;;;;;;;0.70;0.45;;;26.80;90.70;;;;;;5053675;28;20045;-65
2022/09/12 12:51:55;;;;;;;1.17;0.60;;;26.50;90.90;;;;;;5053440;28;20044;-65
2022/09/12 12:54:39;;;;;;;1.40;0.50;;;26.80;90.60;;;;;;5053644;28;20057;-68
2022/09/12 12:57:17;;;;;;;1.25;0.40;;;26.70;90.00;;;;;;5055531;28;20079;-69
2022/09/12 13:00:08;;;;;;;2.58;0.52;;;26.80;91.10;;;;;;5057500;28;20084;-65
2022/09/12 13:02:55;;;;;;;1.85;0.70;;;26.80;91.00;;;;;;5057012;28;20479;-65
2022/09/12 13:05:23;;;;;;;0.47;0.30;;;26.70;90.40;;;;;;5057401;28;20051;-66
2022/09/12 13:08:15;;;;;;;0.30;0.30;;;26.60;90.10;;;;;;5056284;28;20072;-66
2022/09/12 13:10:52;;;;;;;1.98;0.50;;;26.90;90.00;;;;;;5055338;28;20041;-65
2022/09/12 13:13:31;;;;;;;1.23;0.50;;;26.70;90.20;;;;;;5052948;28;20044;-69
2022/09/12 13:15:57;;;;;;;1.63;0.70;;;27.00;91.30;;;;;;5046898;28;20041;-66
2022/09/12 13:18:46;;;;;;;0.93;0.43;;;27.20;89.70;;;;;;5056870;28;20480;-65
2022/09/12 13:21:18;;;;;;;1.40;0.38;;;26.90;88.60;;;;;;5055591;28;20055;-65
2022/09/12 13:23:58;;;;;;;0.93;0.30;;;27.00;88.80;;;;;;5049109;28;20122;-66